sensor_id;sensor_type;location;lat;lon;timestamp;pressure;altitude;pressure_sealevel;temperature;humidity
47763;BME280;33526;42.690;23.322;2023-04-15T00:00:14;94264.69;;;7.86;68.28
47763;BME280;33526;42.690;23.322;2023-04-15T00:02:41;94282.59;;;7.94;68.02
47763;BME280;33526;42.690;23.322;2023-04-15T00:05:07;94333.47;;;8.28;67.37
47763;BME280;33526;42.690;23.322;2023-04-15T00:07:32;94299.28;;;8.03;67.92
47763;BME280;33526;42.690;23.322;2023-04-15T00:09:59;94332.97;;;8.39;67.94
47763;BME280;33526;42.690;23.322;2023-04-15T00:12:26;94253.22;;;7.93;67.94
47763;BME280;33526;42.690;23.322;2023-04-15T00:14:51;94271.03;;;8.20;68.25
47763;BME280;33526;42.690;23.322;2023-04-15T00:17:17;94283.22;;;8.22;67.61
47763;BME280;33526;42.690;23.322;2023-04-15T00:19:43;94254.69;;;8.13;67.42
47763;BME280;33526;42.690;23.322;2023-04-15T00:22:11;94229.03;;;8.09;67.53
47763;BME280;33526;42.690;23.322;2023-04-15T00:24:37;94230.84;;;8.12;67.53
47763;BME280;33526;42.690;23.322;2023-04-15T00:27:03;94279.16;;;8.33;67.16
47763;BME280;33526;42.690;23.322;2023-04-15T00:29:29;94238.19;;;8.24;68.86
47763;BME280;33526;42.690;23.322;2023-04-15T00:31:55;94319.91;;;8.78;68.40
47763;BME280;33526;42.690;23.322;2023-04-15T00:34:21;94273.50;;;8.51;68.59
47763;BME280;33526;42.690;23.322;2023-04-15T00:36:47;94253.25;;;8.41;67.63
47763;BME280;33526;42.690;23.322;2023-04-15T00:39:13;94340.59;;;8.87;68.59
47763;BME280;33526;42.690;23.322;2023-04-15T00:41:38;94338.19;;;8.79;68.31
47763;BME280;33526;42.690;23.322;2023-04-15T00:44:06;94218.78;;;8.15;67.86
47763;BME280;33526;42.690;23.322;2023-04-15T00:46:34;94270.06;;;8.56;67.95
47763;BME280;33526;42.690;23.322;2023-04-15T00:49:02;94305.59;;;8.86;66.98
47763;BME280;33526;42.690;23.322;2023-04-15T00:51:28;94212.38;;;8.23;66.79
47763;BME280;33526;42.690;23.322;2023-04-15T00:53:54;94305.13;;;8.87;66.93
47763;BME280;33526;42.690;23.322;2023-04-15T00:56:20;94266.63;;;8.61;67.26
47763;BME280;33526;42.690;23.322;2023-04-15T00:58:49;94309.38;;;8.83;67.76
47763;BME280;33526;42.690;23.322;2023-04-15T01:01:17;94325.44;;;8.88;68.23
47763;BME280;33526;42.690;23.322;2023-04-15T01:03:46;94244.84;;;8.27;68.49
47763;BME280;33526;42.690;23.322;2023-04-15T01:06:12;94315.88;;;8.79;68.12
47763;BME280;33526;42.690;23.322;2023-04-15T01:08:38;94335.31;;;8.89;68.71
47763;BME280;33526;42.690;23.322;2023-04-15T01:11:04;94344.09;;;8.72;69.07
47763;BME280;33526;42.690;23.322;2023-04-15T01:13:30;94350.38;;;8.58;69.05
47763;BME280;33526;42.690;23.322;2023-04-15T01:15:58;94298.69;;;8.23;68.92
47763;BME280;33526;42.690;23.322;2023-04-15T01:18:23;94310.53;;;8.42;69.43
47763;BME280;33526;42.690;23.322;2023-04-15T01:20:49;94303.38;;;8.51;69.10
47763;BME280;33526;42.690;23.322;2023-04-15T01:23:15;94316.94;;;8.58;68.90
47763;BME280;33526;42.690;23.322;2023-04-15T01:25:42;94269.59;;;8.24;68.77
47763;BME280;33526;42.690;23.322;2023-04-15T01:28:08;94247.84;;;8.14;69.06
47763;BME280;33526;42.690;23.322;2023-04-15T01:30:35;94256.03;;;8.17;68.09
47763;BME280;33526;42.690;23.322;2023-04-15T01:33:00;94323.91;;;8.63;68.20
47763;BME280;33526;42.690;23.322;2023-04-15T01:35:26;94326.25;;;8.55;69.01
47763;BME280;33526;42.690;23.322;2023-04-15T01:37:52;94282.75;;;8.24;68.90
47763;BME280;33526;42.690;23.322;2023-04-15T01:40:19;94224.22;;;7.76;70.23
47763;BME280;33526;42.690;23.322;2023-04-15T01:42:45;94248.09;;;7.68;69.75
47763;BME280;33526;42.690;23.322;2023-04-15T01:45:11;94261.50;;;7.78;70.37
47763;BME280;33526;42.690;23.322;2023-04-15T01:47:37;94277.09;;;7.76;70.18
47763;BME280;33526;42.690;23.322;2023-04-15T01:50:03;94243.63;;;7.61;70.78
47763;BME280;33526;42.690;23.322;2023-04-15T01:52:28;94304.84;;;8.03;70.83
47763;BME280;33526;42.690;23.322;2023-04-15T01:54:54;94325.84;;;8.04;70.50
47763;BME280;33526;42.690;23.322;2023-04-15T01:57:19;94310.75;;;7.96;71.11
47763;BME280;33526;42.690;23.322;2023-04-15T01:59:45;94271.41;;;7.70;70.66
47763;BME280;33526;42.690;23.322;2023-04-15T02:02:11;94323.41;;;7.97;71.78
47763;BME280;33526;42.690;23.322;2023-04-15T02:04:36;94274.34;;;7.66;71.86
47763;BME280;33526;42.690;23.322;2023-04-15T02:07:02;94295.34;;;7.77;72.25
47763;BME280;33526;42.690;23.322;2023-04-15T02:09:27;94297.25;;;7.71;72.66
47763;BME280;33526;42.690;23.322;2023-04-15T02:11:53;94273.03;;;7.53;73.08
47763;BME280;33526;42.690;23.322;2023-04-15T02:14:18;94283.63;;;7.73;72.80
47763;BME280;33526;42.690;23.322;2023-04-15T02:16:44;94297.50;;;7.82;73.09
47763;BME280;33526;42.690;23.322;2023-04-15T02:19:09;94299.34;;;7.85;73.23
47763;BME280;33526;42.690;23.322;2023-04-15T02:21:35;94277.59;;;7.65;73.14
47763;BME280;33526;42.690;23.322;2023-04-15T02:24:00;94291.66;;;7.71;72.76
47763;BME280;33526;42.690;23.322;2023-04-15T02:26:27;94263.63;;;7.41;72.60
47763;BME280;33526;42.690;23.322;2023-04-15T02:28:53;94285.25;;;7.37;73.57
47763;BME280;33526;42.690;23.322;2023-04-15T02:31:18;94288.69;;;7.22;74.07
47763;BME280;33526;42.690;23.322;2023-04-15T02:33:45;94280.38;;;7.13;74.75
47763;BME280;33526;42.690;23.322;2023-04-15T02:36:10;94289.78;;;7.06;74.95
47763;BME280;33526;42.690;23.322;2023-04-15T02:38:36;94246.75;;;6.74;74.94
47763;BME280;33526;42.690;23.322;2023-04-15T02:41:03;94225.13;;;6.60;75.03
47763;BME280;33526;42.690;23.322;2023-04-15T02:43:28;94328.53;;;7.10;76.00
47763;BME280;33526;42.690;23.322;2023-04-15T02:45:54;94239.03;;;6.50;76.79
47763;BME280;33526;42.690;23.322;2023-04-15T02:48:20;94293.34;;;6.70;76.61
47763;BME280;33526;42.690;23.322;2023-04-15T02:50:46;94277.53;;;6.21;77.67
47763;BME280;33526;42.690;23.322;2023-04-15T02:53:12;94263.50;;;6.15;77.54
47763;BME280;33526;42.690;23.322;2023-04-15T02:55:39;94299.13;;;6.26;77.62
47763;BME280;33526;42.690;23.322;2023-04-15T02:58:04;94269.47;;;6.04;78.03
47763;BME280;33526;42.690;23.322;2023-04-15T03:00:29;94311.19;;;6.32;77.78
47763;BME280;33526;42.690;23.322;2023-04-15T03:03:03;94358.72;;;6.43;78.31
47763;BME280;33526;42.690;23.322;2023-04-15T03:05:29;94308.50;;;6.10;77.96
47763;BME280;33526;42.690;23.322;2023-04-15T03:07:55;94313.59;;;6.11;77.91
47763;BME280;33526;42.690;23.322;2023-04-15T03:10:20;94348.47;;;6.12;77.97
47763;BME280;33526;42.690;23.322;2023-04-15T03:12:47;94366.19;;;6.15;78.11
47763;BME280;33526;42.690;23.322;2023-04-15T03:15:12;94362.78;;;6.11;77.83
47763;BME280;33526;42.690;23.322;2023-04-15T03:17:38;94284.31;;;5.39;77.99
47763;BME280;33526;42.690;23.322;2023-04-15T03:20:05;94236.06;;;5.05;79.35
47763;BME280;33526;42.690;23.322;2023-04-15T03:22:31;94355.97;;;6.03;78.82
47763;BME280;33526;42.690;23.322;2023-04-15T03:24:56;94316.22;;;5.74;78.02
47763;BME280;33526;42.690;23.322;2023-04-15T03:27:22;94315.88;;;5.72;78.01
47763;BME280;33526;42.690;23.322;2023-04-15T03:29:47;94302.63;;;5.67;78.13
47763;BME280;33526;42.690;23.322;2023-04-15T03:32:13;94365.13;;;5.90;77.88
47763;BME280;33526;42.690;23.322;2023-04-15T03:34:40;94300.06;;;5.51;77.76
47763;BME280;33526;42.690;23.322;2023-04-15T03:37:05;94358.19;;;5.86;75.36
47763;BME280;33526;42.690;23.322;2023-04-15T03:39:31;94368.75;;;6.00;74.65
47763;BME280;33526;42.690;23.322;2023-04-15T03:41:57;94338.41;;;5.74;73.80
47763;BME280;33526;42.690;23.322;2023-04-15T03:44:23;94331.03;;;5.49;73.44
47763;BME280;33526;42.690;23.322;2023-04-15T03:46:48;94403.34;;;5.86;72.68
47763;BME280;33526;42.690;23.322;2023-04-15T03:49:14;94352.03;;;5.60;71.96
47763;BME280;33526;42.690;23.322;2023-04-15T03:51:40;94313.25;;;5.38;71.08
47763;BME280;33526;42.690;23.322;2023-04-15T03:54:05;94380.97;;;5.81;72.06
47763;BME280;33526;42.690;23.322;2023-04-15T03:56:31;94420.75;;;6.09;71.84
47763;BME280;33526;42.690;23.322;2023-04-15T03:58:56;94396.75;;;5.93;73.81
47763;BME280;33526;42.690;23.322;2023-04-15T04:01:22;94305.38;;;5.36;75.23
47763;BME280;33526;42.690;23.322;2023-04-15T04:03:47;94369.31;;;5.95;75.96
47763;BME280;33526;42.690;23.322;2023-04-15T04:06:13;94320.63;;;5.63;76.36
47763;BME280;33526;42.690;23.322;2023-04-15T04:08:39;94333.19;;;5.77;76.43
47763;BME280;33526;42.690;23.322;2023-04-15T04:11:05;94357.03;;;5.96;77.03
47763;BME280;33526;42.690;23.322;2023-04-15T04:13:31;94356.56;;;5.98;77.32
47763;BME280;33526;42.690;23.322;2023-04-15T04:15:56;94350.78;;;5.92;77.70
47763;BME280;33526;42.690;23.322;2023-04-15T04:18:22;94346.19;;;5.89;78.03
47763;BME280;33526;42.690;23.322;2023-04-15T04:20:47;94346.13;;;5.80;78.71
47763;BME280;33526;42.690;23.322;2023-04-15T04:23:13;94296.06;;;5.52;78.55
47763;BME280;33526;42.690;23.322;2023-04-15T04:25:38;94345.25;;;5.92;78.89
47763;BME280;33526;42.690;23.322;2023-04-15T04:28:03;94397.25;;;6.32;78.56
47763;BME280;33526;42.690;23.322;2023-04-15T04:30:29;94388.28;;;6.28;78.69
47763;BME280;33526;42.690;23.322;2023-04-15T04:32:54;94325.88;;;6.01;78.22
47763;BME280;33526;42.690;23.322;2023-04-15T04:35:20;94346.22;;;6.48;76.41
47763;BME280;33526;42.690;23.322;2023-04-15T04:37:46;94357.88;;;6.83;75.20
47763;BME280;33526;42.690;23.322;2023-04-15T04:40:12;94280.22;;;6.52;74.35
47763;BME280;33526;42.690;23.322;2023-04-15T04:42:38;94335.31;;;7.18;72.17
47763;BME280;33526;42.690;23.322;2023-04-15T04:45:03;94389.47;;;7.88;70.10
47763;BME280;33526;42.690;23.322;2023-04-15T04:47:29;94375.91;;;8.23;68.84
47763;BME280;33526;42.690;23.322;2023-04-15T04:49:54;94420.97;;;8.55;68.46
47763;BME280;33526;42.690;23.322;2023-04-15T04:52:20;94409.22;;;9.08;67.16
47763;BME280;33526;42.690;23.322;2023-04-15T04:54:45;94446.25;;;9.33;66.31
47763;BME280;33526;42.690;23.322;2023-04-15T04:57:11;94444.19;;;9.57;65.69
47763;BME280;33526;42.690;23.322;2023-04-15T04:59:38;94412.28;;;9.73;62.89
47763;BME280;33526;42.690;23.322;2023-04-15T05:02:03;94413.28;;;9.85;62.19
47763;BME280;33526;42.690;23.322;2023-04-15T05:04:29;94454.13;;;10.42;61.53
47763;BME280;33526;42.690;23.322;2023-04-15T05:06:56;94465.88;;;10.61;59.83
47763;BME280;33526;42.690;23.322;2023-04-15T05:09:23;94462.56;;;10.78;59.77
47763;BME280;33526;42.690;23.322;2023-04-15T05:11:49;94470.84;;;10.87;58.01
47763;BME280;33526;42.690;23.322;2023-04-15T05:14:14;94449.63;;;10.80;57.46
47763;BME280;33526;42.690;23.322;2023-04-15T05:16:41;94441.38;;;10.71;57.06
47763;BME280;33526;42.690;23.322;2023-04-15T05:19:06;94454.72;;;10.31;58.73
47763;BME280;33526;42.690;23.322;2023-04-15T05:21:32;94428.22;;;10.42;58.22
47763;BME280;33526;42.690;23.322;2023-04-15T05:23:57;94411.53;;;10.03;58.95
47763;BME280;33526;42.690;23.322;2023-04-15T05:26:23;94486.13;;;10.41;59.59
47763;BME280;33526;42.690;23.322;2023-04-15T05:28:49;94405.16;;;10.17;59.14
47763;BME280;33526;42.690;23.322;2023-04-15T05:31:15;94404.97;;;9.76;60.74
47763;BME280;33526;42.690;23.322;2023-04-15T05:33:41;94372.16;;;9.86;60.20
47763;BME280;33526;42.690;23.322;2023-04-15T05:36:07;94416.63;;;9.89;61.30
47763;BME280;33526;42.690;23.322;2023-04-15T05:38:32;94447.16;;;10.08;60.50
47763;BME280;33526;42.690;23.322;2023-04-15T05:40:58;94451.22;;;10.07;60.64
47763;BME280;33526;42.690;23.322;2023-04-15T05:43:23;94485.06;;;9.85;61.67
47763;BME280;33526;42.690;23.322;2023-04-15T05:45:49;94469.38;;;9.48;62.55
47763;BME280;33526;42.690;23.322;2023-04-15T05:48:14;94368.84;;;8.79;62.79
47763;BME280;33526;42.690;23.322;2023-04-15T05:50:41;94425.97;;;9.08;63.38
47763;BME280;33526;42.690;23.322;2023-04-15T05:53:07;94352.19;;;8.70;62.06
47763;BME280;33526;42.690;23.322;2023-04-15T05:55:32;94357.44;;;8.68;62.44
47763;BME280;33526;42.690;23.322;2023-04-15T05:57:58;94345.56;;;8.58;61.64
47763;BME280;33526;42.690;23.322;2023-04-15T06:00:25;94480.22;;;9.31;61.66
47763;BME280;33526;42.690;23.322;2023-04-15T06:02:50;94417.59;;;8.84;61.89
47763;BME280;33526;42.690;23.322;2023-04-15T06:05:17;94451.34;;;9.10;61.59
47763;BME280;33526;42.690;23.322;2023-04-15T06:07:43;94472.44;;;9.35;62.54
47763;BME280;33526;42.690;23.322;2023-04-15T06:10:09;94449.22;;;9.29;60.81
47763;BME280;33526;42.690;23.322;2023-04-15T06:12:35;94507.94;;;9.74;61.53
47763;BME280;33526;42.690;23.322;2023-04-15T06:15:01;94437.81;;;9.42;60.68
47763;BME280;33526;42.690;23.322;2023-04-15T06:17:26;94439.59;;;9.54;60.15
47763;BME280;33526;42.690;23.322;2023-04-15T06:19:52;94454.97;;;9.50;59.58
47763;BME280;33526;42.690;23.322;2023-04-15T06:22:21;94463.22;;;9.44;59.68
47763;BME280;33526;42.690;23.322;2023-04-15T06:24:48;94491.28;;;9.65;59.89
47763;BME280;33526;42.690;23.322;2023-04-15T06:27:17;94442.75;;;9.23;60.25
47763;BME280;33526;42.690;23.322;2023-04-15T06:29:43;94473.31;;;9.17;60.80
47763;BME280;33526;42.690;23.322;2023-04-15T06:32:08;94494.91;;;9.32;61.29
47763;BME280;33526;42.690;23.322;2023-04-15T06:34:35;94455.41;;;9.09;61.02
47763;BME280;33526;42.690;23.322;2023-04-15T06:37:00;94499.56;;;9.35;61.29
47763;BME280;33526;42.690;23.322;2023-04-15T06:39:26;94469.16;;;9.37;61.63
47763;BME280;33526;42.690;23.322;2023-04-15T06:41:52;94436.81;;;9.54;60.53
47763;BME280;33526;42.690;23.322;2023-04-15T06:44:17;94526.09;;;9.93;60.46
47763;BME280;33526;42.690;23.322;2023-04-15T06:46:43;94374.75;;;8.96;60.29
47763;BME280;33526;42.690;23.322;2023-04-15T06:49:10;94498.56;;;9.86;59.29
47763;BME280;33526;42.690;23.322;2023-04-15T06:51:36;94531.19;;;10.19;59.52
47763;BME280;33526;42.690;23.322;2023-04-15T06:54:03;94545.72;;;10.23;59.78
47763;BME280;33526;42.690;23.322;2023-04-15T06:56:31;94414.75;;;9.56;59.46
47763;BME280;33526;42.690;23.322;2023-04-15T06:58:56;94457.47;;;10.02;58.90
47763;BME280;33526;42.690;23.322;2023-04-15T07:01:22;94481.25;;;9.97;58.86
47763;BME280;33526;42.690;23.322;2023-04-15T07:03:47;94428.75;;;9.86;58.97
47763;BME280;33526;42.690;23.322;2023-04-15T07:06:14;94431.97;;;9.94;58.58
47763;BME280;33526;42.690;23.322;2023-04-15T07:08:40;94532.41;;;10.57;58.80
47763;BME280;33526;42.690;23.322;2023-04-15T07:11:06;94428.28;;;10.03;58.06
47763;BME280;33526;42.690;23.322;2023-04-15T07:13:31;94495.00;;;10.40;58.03
47763;BME280;33526;42.690;23.322;2023-04-15T07:15:57;94508.19;;;10.54;57.96
47763;BME280;33526;42.690;23.322;2023-04-15T08:24:59;94525.47;;;13.68;44.77
47763;BME280;33526;42.690;23.322;2023-04-15T08:27:25;94502.78;;;13.72;44.73
47763;BME280;33526;42.690;23.322;2023-04-15T08:29:50;94536.66;;;14.06;44.10
47763;BME280;33526;42.690;23.322;2023-04-15T08:32:15;94532.00;;;13.97;43.85
47763;BME280;33526;42.690;23.322;2023-04-15T08:34:47;94528.28;;;14.17;43.76
47763;BME280;33526;42.690;23.322;2023-04-15T08:37:13;94535.06;;;14.76;42.30
47763;BME280;33526;42.690;23.322;2023-04-15T08:39:38;94536.13;;;15.01;42.50
47763;BME280;33526;42.690;23.322;2023-04-15T08:42:10;94531.00;;;15.22;39.81
47763;BME280;33526;42.690;23.322;2023-04-15T08:44:37;94527.66;;;15.41;39.54
47763;BME280;33526;42.690;23.322;2023-04-15T08:47:03;94535.31;;;15.63;38.83
47763;BME280;33526;42.690;23.322;2023-04-15T08:49:34;94504.56;;;15.71;38.59
47763;BME280;33526;42.690;23.322;2023-04-15T08:52:03;94519.91;;;15.92;38.65
47763;BME280;33526;42.690;23.322;2023-04-15T08:54:29;94523.41;;;16.10;38.30
47763;BME280;33526;42.690;23.322;2023-04-15T08:56:56;94509.34;;;16.04;37.31
47763;BME280;33526;42.690;23.322;2023-04-15T08:59:22;94517.72;;;16.21;37.20
47763;BME280;33526;42.690;23.322;2023-04-15T09:01:51;94500.06;;;16.15;37.58
47763;BME280;33526;42.690;23.322;2023-04-15T09:04:17;94477.91;;;15.83;38.66
47763;BME280;33526;42.690;23.322;2023-04-15T09:06:43;94461.53;;;15.64;40.40
47763;BME280;33526;42.690;23.322;2023-04-15T09:09:08;94487.28;;;16.02;40.17
47763;BME280;33526;42.690;23.322;2023-04-15T09:11:34;94473.06;;;15.78;40.37
47763;BME280;33526;42.690;23.322;2023-04-15T09:14:00;94498.38;;;15.89;40.23
47763;BME280;33526;42.690;23.322;2023-04-15T09:16:26;94476.97;;;15.41;40.96
47763;BME280;33526;42.690;23.322;2023-04-15T09:18:52;94459.34;;;15.12;41.18
47763;BME280;33526;42.690;23.322;2023-04-15T09:21:18;94507.69;;;15.39;40.93
47763;BME280;33526;42.690;23.322;2023-04-15T09:23:58;94486.22;;;15.13;41.19
47763;BME280;33526;42.690;23.322;2023-04-15T09:26:34;94485.19;;;15.10;41.08
47763;BME280;33526;42.690;23.322;2023-04-15T09:29:08;94494.66;;;14.96;40.63
47763;BME280;33526;42.690;23.322;2023-04-15T09:31:37;94480.88;;;15.04;41.15
47763;BME280;33526;42.690;23.322;2023-04-15T09:34:02;94498.50;;;15.10;41.82
47763;BME280;33526;42.690;23.322;2023-04-15T09:36:28;94467.28;;;15.31;41.54
47763;BME280;33526;42.690;23.322;2023-04-15T09:38:58;94499.44;;;15.75;40.36
47763;BME280;33526;42.690;23.322;2023-04-15T09:41:25;94500.19;;;15.70;39.96
47763;BME280;33526;42.690;23.322;2023-04-15T09:43:51;94494.81;;;15.83;39.73
47763;BME280;33526;42.690;23.322;2023-04-15T09:46:17;94484.16;;;16.17;38.78
47763;BME280;33526;42.690;23.322;2023-04-15T09:48:42;94497.28;;;16.56;38.28
47763;BME280;33526;42.690;23.322;2023-04-15T09:51:07;94490.44;;;16.88;37.46
47763;BME280;33526;42.690;23.322;2023-04-15T09:53:34;94493.63;;;17.03;36.74
47763;BME280;33526;42.690;23.322;2023-04-15T09:56:01;94482.34;;;17.03;36.95
47763;BME280;33526;42.690;23.322;2023-04-15T09:58:28;94483.16;;;16.56;36.94
47763;BME280;33526;42.690;23.322;2023-04-15T10:00:54;94511.22;;;16.85;37.05
47763;BME280;33526;42.690;23.322;2023-04-15T10:03:27;94495.84;;;16.86;36.16
47763;BME280;33526;42.690;23.322;2023-04-15T10:05:58;94474.88;;;16.28;36.33
47763;BME280;33526;42.690;23.322;2023-04-15T10:08:29;94489.94;;;16.36;35.94
47763;BME280;33526;42.690;23.322;2023-04-15T10:10:55;94428.84;;;16.09;36.25
47763;BME280;33526;42.690;23.322;2023-04-15T10:13:23;94493.88;;;16.69;35.25
47763;BME280;33526;42.690;23.322;2023-04-15T10:16:19;94479.44;;;16.78;35.35
47763;BME280;33526;42.690;23.322;2023-04-15T10:18:47;94488.38;;;17.49;35.05
47763;BME280;33526;42.690;23.322;2023-04-15T10:21:13;94466.38;;;17.61;33.66
47763;BME280;33526;42.690;23.322;2023-04-15T10:23:43;94483.34;;;17.61;32.81
47763;BME280;33526;42.690;23.322;2023-04-15T10:26:11;94434.94;;;17.20;32.75
47763;BME280;33526;42.690;23.322;2023-04-15T10:28:37;94441.53;;;17.53;32.27
47763;BME280;33526;42.690;23.322;2023-04-15T10:31:03;94450.97;;;17.62;31.90
47763;BME280;33526;42.690;23.322;2023-04-15T10:33:30;94455.56;;;17.89;31.18
47763;BME280;33526;42.690;23.322;2023-04-15T10:35:56;94455.03;;;17.42;31.44
47763;BME280;33526;42.690;23.322;2023-04-15T10:41:26;94455.59;;;17.59;31.03
47763;BME280;33526;42.690;23.322;2023-04-15T10:46:43;94462.84;;;18.04;29.45
47763;BME280;33526;42.690;23.322;2023-04-15T10:49:14;94450.41;;;18.31;29.90
47763;BME280;33526;42.690;23.322;2023-04-15T10:51:45;94412.84;;;18.50;28.75
47763;BME280;33526;42.690;23.322;2023-04-15T10:54:16;94388.41;;;17.95;29.69
47763;BME280;33526;42.690;23.322;2023-04-15T10:56:43;94457.81;;;18.34;29.74
47763;BME280;33526;42.690;23.322;2023-04-15T10:59:09;94434.03;;;18.05;28.10
47763;BME280;33526;42.690;23.322;2023-04-15T11:01:54;94452.28;;;18.61;29.79
47763;BME280;33526;42.690;23.322;2023-04-15T11:04:52;94446.56;;;18.99;29.24
47763;BME280;33526;42.690;23.322;2023-04-15T11:15:34;94444.66;;;19.21;26.86
47763;BME280;33526;42.690;23.322;2023-04-15T11:18:14;94447.19;;;18.92;26.68
47763;BME280;33526;42.690;23.322;2023-04-15T11:20:45;94424.72;;;18.81;26.93
47763;BME280;33526;42.690;23.322;2023-04-15T11:23:11;94432.25;;;19.10;25.61
47763;BME280;33526;42.690;23.322;2023-04-15T11:25:37;94406.47;;;18.95;25.18
47763;BME280;33526;42.690;23.322;2023-04-15T11:28:03;94431.81;;;19.20;25.22
47763;BME280;33526;42.690;23.322;2023-04-15T11:30:31;94440.13;;;19.31;25.34
47763;BME280;33526;42.690;23.322;2023-04-15T11:33:02;94385.59;;;19.12;25.59
47763;BME280;33526;42.690;23.322;2023-04-15T11:35:28;94436.75;;;19.46;26.34
47763;BME280;33526;42.690;23.322;2023-04-15T11:37:54;94439.56;;;19.33;25.54
47763;BME280;33526;42.690;23.322;2023-04-15T11:40:25;94419.47;;;19.04;25.65
47763;BME280;33526;42.690;23.322;2023-04-15T11:45:51;94430.75;;;19.49;25.71
47763;BME280;33526;42.690;23.322;2023-04-15T11:48:18;94433.59;;;19.49;25.88
47763;BME280;33526;42.690;23.322;2023-04-15T11:50:44;94419.84;;;19.27;27.46
47763;BME280;33526;42.690;23.322;2023-04-15T11:53:12;94410.91;;;19.36;28.24
47763;BME280;33526;42.690;23.322;2023-04-15T11:55:49;94435.78;;;19.57;27.29
47763;BME280;33526;42.690;23.322;2023-04-15T11:58:17;94436.75;;;19.46;27.40
47763;BME280;33526;42.690;23.322;2023-04-15T12:00:51;94404.25;;;19.20;27.72
47763;BME280;33526;42.690;23.322;2023-04-15T12:03:25;94426.38;;;19.35;27.77
47763;BME280;33526;42.690;23.322;2023-04-15T12:06:11;94419.31;;;19.42;27.84
47763;BME280;33526;42.690;23.322;2023-04-15T12:08:57;94431.63;;;19.71;28.05
47763;BME280;33526;42.690;23.322;2023-04-15T12:16:22;94403.94;;;19.51;27.08
47763;BME280;33526;42.690;23.322;2023-04-15T12:18:52;94398.06;;;19.48;26.77
47763;BME280;33526;42.690;23.322;2023-04-15T12:21:21;94398.69;;;19.28;26.81
47763;BME280;33526;42.690;23.322;2023-04-15T12:23:52;94408.72;;;19.42;26.69
47763;BME280;33526;42.690;23.322;2023-04-15T12:26:30;94415.25;;;19.37;26.39
47763;BME280;33526;42.690;23.322;2023-04-15T12:29:06;94424.06;;;19.07;26.91
47763;BME280;33526;42.690;23.322;2023-04-15T12:31:33;94427.91;;;18.90;27.10
47763;BME280;33526;42.690;23.322;2023-04-15T12:34:01;94414.88;;;19.01;27.32
47763;BME280;33526;42.690;23.322;2023-04-15T12:36:27;94426.66;;;19.05;27.40
47763;BME280;33526;42.690;23.322;2023-04-15T12:38:54;94424.22;;;18.96;27.70
47763;BME280;33526;42.690;23.322;2023-04-15T12:41:20;94426.28;;;19.27;27.28
47763;BME280;33526;42.690;23.322;2023-04-15T12:43:46;94433.00;;;19.24;27.04
47763;BME280;33526;42.690;23.322;2023-04-15T12:46:12;94425.09;;;19.49;26.93
47763;BME280;33526;42.690;23.322;2023-04-15T12:48:39;94427.72;;;19.47;26.56
47763;BME280;33526;42.690;23.322;2023-04-15T12:51:04;94416.69;;;19.44;26.96
47763;BME280;33526;42.690;23.322;2023-04-15T12:53:30;94400.56;;;19.39;27.44
47763;BME280;33526;42.690;23.322;2023-04-15T12:55:55;94367.53;;;19.15;26.55
47763;BME280;33526;42.690;23.322;2023-04-15T12:58:21;94370.09;;;18.86;26.99
47763;BME280;33526;42.690;23.322;2023-04-15T13:00:46;94423.13;;;19.44;27.35
47763;BME280;33526;42.690;23.322;2023-04-15T13:03:12;94416.91;;;19.33;27.32
47763;BME280;33526;42.690;23.322;2023-04-15T13:05:38;94357.25;;;18.98;27.10
47763;BME280;33526;42.690;23.322;2023-04-15T13:08:04;94398.25;;;19.24;26.64
47763;BME280;33526;42.690;23.322;2023-04-15T13:10:30;94384.56;;;18.96;26.18
47763;BME280;33526;42.690;23.322;2023-04-15T13:12:56;94433.88;;;19.19;25.68
47763;BME280;33526;42.690;23.322;2023-04-15T13:15:22;94429.13;;;18.95;26.18
47763;BME280;33526;42.690;23.322;2023-04-15T13:17:48;94398.72;;;18.82;25.86
47763;BME280;33526;42.690;23.322;2023-04-15T13:20:13;94411.94;;;18.93;26.78
47763;BME280;33526;42.690;23.322;2023-04-15T13:22:39;94444.94;;;19.36;26.57
47763;BME280;33526;42.690;23.322;2023-04-15T13:25:06;94440.78;;;19.37;25.95
47763;BME280;33526;42.690;23.322;2023-04-15T13:27:32;94427.66;;;19.21;26.49
47763;BME280;33526;42.690;23.322;2023-04-15T13:29:58;94416.78;;;19.25;26.97
47763;BME280;33526;42.690;23.322;2023-04-15T13:32:24;94395.34;;;19.56;26.56
47763;BME280;33526;42.690;23.322;2023-04-15T13:34:49;94392.06;;;19.39;26.99
47763;BME280;33526;42.690;23.322;2023-04-15T13:37:15;94401.56;;;19.41;27.17
47763;BME280;33526;42.690;23.322;2023-04-15T13:39:40;94405.25;;;19.49;26.99
47763;BME280;33526;42.690;23.322;2023-04-15T13:42:06;94405.25;;;19.36;26.94
47763;BME280;33526;42.690;23.322;2023-04-15T13:44:31;94382.75;;;18.98;27.43
47763;BME280;33526;42.690;23.322;2023-04-15T13:46:57;94415.16;;;19.16;27.94
47763;BME280;33526;42.690;23.322;2023-04-15T13:49:22;94376.66;;;19.07;27.68
47763;BME280;33526;42.690;23.322;2023-04-15T13:51:47;94406.34;;;19.33;27.14
47763;BME280;33526;42.690;23.322;2023-04-15T13:54:13;94381.25;;;19.24;26.89
47763;BME280;33526;42.690;23.322;2023-04-15T13:56:38;94382.53;;;19.09;27.44
47763;BME280;33526;42.690;23.322;2023-04-15T13:59:04;94379.94;;;19.12;27.89
47763;BME280;33526;42.690;23.322;2023-04-15T14:01:30;94378.31;;;19.29;27.50
47763;BME280;33526;42.690;23.322;2023-04-15T14:03:56;94380.84;;;19.46;27.14
47763;BME280;33526;42.690;23.322;2023-04-15T14:06:21;94398.16;;;19.70;27.16
47763;BME280;33526;42.690;23.322;2023-04-15T14:08:47;94377.44;;;19.48;27.05
47763;BME280;33526;42.690;23.322;2023-04-15T14:11:12;94396.75;;;19.36;27.12
47763;BME280;33526;42.690;23.322;2023-04-15T14:13:38;94311.91;;;18.85;26.79
47763;BME280;33526;42.690;23.322;2023-04-15T14:16:03;94382.06;;;18.92;27.16
47763;BME280;33526;42.690;23.322;2023-04-15T14:18:29;94376.72;;;18.56;27.52
47763;BME280;33526;42.690;23.322;2023-04-15T14:20:55;94405.13;;;18.83;27.59